Time;durP1;ratioP1;P1;durP2;ratioP2;P2;SDS_P1;SDS_P2;PMS_P1;PMS_P2;Temp;Humidity;BMP_temperature;BMP_pressure;BME280_temperature;BME280_humidity;BME280_pressure;Samples;Min_cycle;Max_cycle;Signal;HPM_P1;HPM_P2
2023/11/29 00:00:39;;;;;;;12.88;7.30;;;-1.10;99.90;;;;;;4705728;30;20060;-54
2023/11/29 00:03:06;;;;;;;12.68;7.00;;;-1.20;99.90;;;;;;4725089;30;20056;-50
2023/11/29 00:05:33;;;;;;;11.38;7.18;;;-1.20;99.90;;;;;;4712000;30;20045;-45
2023/11/29 00:08:11;;;;;;;10.68;6.70;;;-1.10;99.90;;;;;;4725161;30;20048;-51
2023/11/29 00:10:38;;;;;;;12.88;7.82;;;-1.10;99.90;;;;;;4710223;30;20056;-50
2023/11/29 00:13:05;;;;;;;11.90;6.90;;;-1.10;99.90;;;;;;4723273;30;20067;-51
2023/11/29 00:15:32;;;;;;;9.05;6.28;;;-1.10;99.90;;;;;;4730031;30;20056;-50
2023/11/29 00:18:00;;;;;;;12.13;7.63;;;-1.20;99.90;;;;;;4699955;30;20057;-50
2023/11/29 00:20:27;;;;;;;10.95;7.10;;;-1.20;99.90;;;;;;4708501;30;20070;-48
2023/11/29 00:22:54;;;;;;;10.80;7.15;;;-1.30;99.90;;;;;;4712452;30;20056;-50
2023/11/29 00:25:22;;;;;;;9.93;6.35;;;-1.30;99.90;;;;;;4726756;30;20105;-48
2023/11/29 00:27:49;;;;;;;10.30;6.60;;;-1.20;99.90;;;;;;4728408;30;20061;-51
2023/11/29 00:30:16;;;;;;;10.38;6.47;;;-1.20;99.90;;;;;;4728533;30;20128;-51
2023/11/29 00:32:43;;;;;;;11.30;7.13;;;-1.20;99.90;;;;;;4728055;30;20047;-48
2023/11/29 00:35:10;;;;;;;8.65;5.78;;;-1.20;99.90;;;;;;4711185;30;20298;-51
2023/11/29 00:37:38;;;;;;;12.38;6.88;;;-1.20;99.90;;;;;;4724518;30;20056;-50
2023/11/29 00:40:05;;;;;;;10.18;6.40;;;-1.30;99.90;;;;;;4707926;30;20135;-54
2023/11/29 00:42:33;;;;;;;9.65;6.70;;;-1.30;99.90;;;;;;4722933;30;20135;-50
2023/11/29 00:45:00;;;;;;;8.90;5.78;;;-1.30;99.90;;;;;;4727634;30;20545;-52
2023/11/29 00:47:27;;;;;;;9.88;6.38;;;-1.30;99.90;;;;;;4725434;30;20057;-52
2023/11/29 00:49:54;;;;;;;9.93;5.72;;;-1.30;99.90;;;;;;4721355;24;20159;-47
2023/11/29 00:52:21;;;;;;;12.07;6.55;;;-1.40;99.90;;;;;;4728479;30;20439;-47
2023/11/29 00:54:48;;;;;;;9.40;5.88;;;-1.40;99.90;;;;;;4729696;30;20241;-51
2023/11/29 00:57:16;;;;;;;11.40;6.88;;;-1.40;99.90;;;;;;4723226;30;20045;-52
2023/11/29 00:59:43;;;;;;;9.55;6.45;;;-1.40;99.90;;;;;;4727528;30;20136;-45
2023/11/29 01:02:10;;;;;;;8.73;5.57;;;-1.40;99.90;;;;;;4712564;30;20639;-46
2023/11/29 01:04:37;;;;;;;10.15;5.82;;;-1.40;99.90;;;;;;4727414;30;20056;-48
2023/11/29 01:07:04;;;;;;;8.55;5.72;;;-1.50;99.90;;;;;;4728836;30;20136;-48
2023/11/29 01:09:31;;;;;;;8.30;5.30;;;-1.60;99.90;;;;;;4728212;30;20060;-49
2023/11/29 01:11:58;;;;;;;8.57;5.43;;;-1.70;99.90;;;;;;4728761;30;20071;-44
2023/11/29 01:14:26;;;;;;;8.63;5.22;;;-1.70;99.90;;;;;;4724828;30;20387;-47
2023/11/29 01:16:53;;;;;;;7.40;5.13;;;-1.70;99.90;;;;;;4725373;30;20060;-50
2023/11/29 01:19:23;;;;;;;6.70;4.82;;;-1.70;99.90;;;;;;4727864;30;20072;-51
2023/11/29 01:21:50;;;;;;;8.20;5.43;;;-1.80;99.90;;;;;;4728323;30;20550;-50
2023/11/29 01:24:18;;;;;;;8.38;5.38;;;-1.90;99.90;;;;;;4712170;30;20053;-46
2023/11/29 01:26:45;;;;;;;8.23;5.07;;;-2.00;99.90;;;;;;4728187;30;20045;-47
2023/11/29 01:29:12;;;;;;;8.90;5.60;;;-2.00;99.90;;;;;;4728584;30;20562;-49
2023/11/29 01:31:39;;;;;;;10.27;6.25;;;-2.10;99.90;;;;;;4727730;30;20064;-46
2023/11/29 01:34:06;;;;;;;10.88;5.90;;;-2.20;99.90;;;;;;4728927;30;20059;-46
2023/11/29 01:36:33;;;;;;;10.82;5.78;;;-2.20;99.90;;;;;;4728352;30;20489;-43
2023/11/29 01:39:00;;;;;;;10.75;6.07;;;-2.30;99.90;;;;;;4729367;30;20416;-48
2023/11/29 01:41:28;;;;;;;10.63;6.57;;;-2.30;99.90;;;;;;4728410;30;20060;-45
2023/11/29 01:43:55;;;;;;;10.30;6.22;;;-2.30;99.90;;;;;;4730157;30;20495;-44
2023/11/29 01:46:22;;;;;;;10.68;6.18;;;-2.30;99.90;;;;;;4728853;30;20060;-50
2023/11/29 01:48:50;;;;;;;9.50;5.82;;;-2.30;99.90;;;;;;4730428;30;20110;-51
2023/11/29 01:51:17;;;;;;;13.05;6.57;;;-2.30;99.90;;;;;;4711450;30;20100;-53
2023/11/29 01:53:46;;;;;;;9.60;6.15;;;-2.30;99.90;;;;;;4713383;30;20094;-47
2023/11/29 01:56:14;;;;;;;11.13;6.57;;;-2.20;99.90;;;;;;4714129;30;20053;-44
2023/11/29 01:58:41;;;;;;;13.10;6.20;;;-2.20;99.90;;;;;;4712192;30;20487;-47
2023/11/29 02:01:08;;;;;;;11.60;6.70;;;-2.20;99.90;;;;;;4711760;30;20431;-45
2023/11/29 02:03:35;;;;;;;10.32;6.30;;;-2.10;99.90;;;;;;4726503;30;20053;-50
2023/11/29 02:06:03;;;;;;;10.02;6.40;;;-2.00;99.90;;;;;;4728964;30;20080;-45
2023/11/29 02:08:33;;;;;;;11.30;7.07;;;-2.00;99.90;;;;;;4729130;30;20118;-51
2023/11/29 02:11:00;;;;;;;10.48;6.50;;;-1.90;99.90;;;;;;4698889;30;20064;-46
2023/11/29 02:13:28;;;;;;;10.27;6.32;;;-1.90;99.90;;;;;;4728633;30;20056;-49
2023/11/29 02:15:55;;;;;;;11.88;7.07;;;-1.80;99.90;;;;;;4727870;30;20114;-41
2023/11/29 02:18:25;;;;;;;11.68;6.97;;;-1.80;99.90;;;;;;4728505;30;20099;-47
2023/11/29 02:20:52;;;;;;;12.05;7.05;;;-1.80;99.90;;;;;;4728768;30;20076;-50
2023/11/29 02:23:44;;;;;;;11.30;6.63;;;-1.80;99.90;;;;;;4726780;30;20101;-50
2023/11/29 02:26:12;;;;;;;10.52;6.53;;;-1.70;99.90;;;;;;4712660;30;20053;-46
2023/11/29 02:28:39;;;;;;;10.23;7.10;;;-1.70;99.90;;;;;;4727815;30;20487;-46
2023/11/29 02:31:06;;;;;;;10.82;7.03;;;-1.70;99.90;;;;;;4713538;30;20064;-47
2023/11/29 02:33:33;;;;;;;12.13;7.15;;;-1.70;99.90;;;;;;4713194;30;20105;-46
2023/11/29 02:36:00;;;;;;;12.00;6.72;;;-1.80;99.90;;;;;;4724738;30;20443;-44
2023/11/29 02:38:27;;;;;;;13.20;7.55;;;-1.70;99.90;;;;;;4716783;30;20100;-49
2023/11/29 02:40:54;;;;;;;12.05;6.93;;;-1.80;99.90;;;;;;4732543;30;20075;-51
2023/11/29 02:43:21;;;;;;;11.45;7.32;;;-1.80;99.90;;;;;;4731607;30;20068;-47
2023/11/29 02:45:48;;;;;;;11.52;6.95;;;-1.80;99.90;;;;;;4715732;30;20554;-44
2023/11/29 02:48:16;;;;;;;11.05;6.72;;;-1.80;99.90;;;;;;4732692;30;20116;-46
2023/11/29 02:50:43;;;;;;;13.05;7.97;;;-1.70;99.90;;;;;;4714800;30;20316;-47
2023/11/29 02:53:10;;;;;;;12.02;7.00;;;-1.80;99.90;;;;;;4733116;30;20057;-47
2023/11/29 02:55:37;;;;;;;11.18;7.07;;;-1.80;99.90;;;;;;4729426;30;20064;-44
2023/11/29 02:58:04;;;;;;;12.02;7.35;;;-1.80;99.90;;;;;;4730630;30;20068;-45
2023/11/29 03:00:32;;;;;;;12.80;7.30;;;-1.80;99.90;;;;;;4730671;30;20049;-46
2023/11/29 03:02:59;;;;;;;12.45;7.90;;;-1.80;99.90;;;;;;4714682;30;20076;-48
2023/11/29 03:05:27;;;;;;;10.50;6.80;;;-1.80;99.90;;;;;;4700921;30;21073;-46
2023/11/29 03:07:54;;;;;;;11.43;7.22;;;-1.80;99.90;;;;;;4724139;30;20059;-50
2023/11/29 03:10:22;;;;;;;14.30;8.27;;;-1.90;99.90;;;;;;4727483;30;20059;-46
2023/11/29 03:12:49;;;;;;;12.93;7.45;;;-1.90;99.90;;;;;;4728628;30;20064;-46
2023/11/29 03:15:16;;;;;;;14.30;8.63;;;-1.90;99.90;;;;;;4696397;30;20067;-48
2023/11/29 03:17:43;;;;;;;13.07;7.72;;;-1.90;99.90;;;;;;4713262;30;20057;-50
2023/11/29 03:20:10;;;;;;;14.52;8.00;;;-1.90;99.90;;;;;;4716294;30;20084;-47
2023/11/29 03:22:37;;;;;;;12.90;7.90;;;-1.90;99.90;;;;;;4728002;30;20059;-46
2023/11/29 03:25:05;;;;;;;13.35;8.23;;;-1.90;99.90;;;;;;4731311;30;20427;-44
2023/11/29 03:27:32;;;;;;;13.35;7.90;;;-2.00;99.90;;;;;;4726733;30;20067;-49
2023/11/29 03:29:59;;;;;;;13.00;7.85;;;-2.10;99.90;;;;;;4715251;30;20060;-46
2023/11/29 03:32:28;;;;;;;13.00;8.20;;;-2.20;99.90;;;;;;4732420;30;20125;-47
2023/11/29 03:34:55;;;;;;;14.23;8.30;;;-2.20;99.90;;;;;;4733846;30;20211;-43
2023/11/29 03:37:22;;;;;;;13.93;8.48;;;-2.30;99.90;;;;;;4715453;30;20069;-46
2023/11/29 03:39:50;;;;;;;15.60;8.90;;;-2.40;99.90;;;;;;4716990;30;20550;-46
2023/11/29 03:42:17;;;;;;;14.32;8.75;;;-2.50;99.90;;;;;;4714024;30;20143;-47
2023/11/29 03:44:44;;;;;;;15.85;8.50;;;-2.50;99.90;;;;;;4712961;30;20045;-47
2023/11/29 03:47:12;;;;;;;13.50;8.27;;;-2.60;99.90;;;;;;4728242;30;20127;-44
2023/11/29 03:49:40;;;;;;;15.00;9.25;;;-2.60;99.90;;;;;;4725324;30;20056;-46
2023/11/29 03:52:07;;;;;;;17.00;9.35;;;-2.60;99.90;;;;;;4728541;30;20048;-47
2023/11/29 03:54:34;;;;;;;14.43;8.80;;;-2.70;99.90;;;;;;4728455;30;20226;-49
2023/11/29 03:57:01;;;;;;;16.50;8.98;;;-2.70;99.90;;;;;;4731243;30;20064;-46
2023/11/29 03:59:29;;;;;;;15.63;8.55;;;-2.70;99.90;;;;;;4728776;30;20546;-42
2023/11/29 04:01:56;;;;;;;14.43;8.10;;;-2.70;99.90;;;;;;4729039;30;20081;-42
2023/11/29 04:04:23;;;;;;;17.00;9.18;;;-2.70;99.90;;;;;;4729251;30;20045;-46
2023/11/29 04:06:50;;;;;;;17.85;9.27;;;-2.70;99.90;;;;;;4730775;30;20075;-41
2023/11/29 04:09:17;;;;;;;17.45;9.65;;;-2.70;99.90;;;;;;4729079;30;20155;-46
2023/11/29 04:11:46;;;;;;;18.00;9.27;;;-2.70;99.90;;;;;;4712376;30;20048;-41
2023/11/29 04:14:13;;;;;;;16.65;9.70;;;-2.80;99.90;;;;;;4726888;30;20140;-44
2023/11/29 04:16:40;;;;;;;17.27;9.60;;;-2.90;99.90;;;;;;4728588;30;20072;-41
2023/11/29 04:19:07;;;;;;;16.58;9.15;;;-2.90;99.90;;;;;;4712724;30;20074;-47
2023/11/29 04:21:35;;;;;;;16.65;9.20;;;-3.00;99.90;;;;;;4728049;30;20090;-46
2023/11/29 04:24:03;;;;;;;17.05;9.93;;;-3.00;99.90;;;;;;4713479;30;20072;-42
2023/11/29 04:26:35;;;;;;;17.88;10.10;;;-3.00;99.90;;;;;;4713322;30;20056;-45
2023/11/29 04:29:04;;;;;;;18.15;9.45;;;-3.10;99.90;;;;;;4729192;30;20053;-45
2023/11/29 04:31:33;;;;;;;18.10;10.00;;;-3.10;99.90;;;;;;4711925;30;20056;-49
2023/11/29 04:34:00;;;;;;;18.63;10.23;;;-3.10;99.90;;;;;;4729335;30;20110;-46
2023/11/29 04:36:40;;;;;;;18.80;10.18;;;-3.10;99.90;;;;;;4713587;30;20086;-42
2023/11/29 04:39:12;;;;;;;21.02;10.45;;;-3.10;99.90;;;;;;4712998;30;20057;-43
2023/11/29 04:41:40;;;;;;;18.42;10.02;;;-3.10;99.90;;;;;;4712577;30;20176;-43
2023/11/29 04:44:08;;;;;;;18.98;10.68;;;-3.20;99.90;;;;;;4712412;30;20056;-48
2023/11/29 04:46:36;;;;;;;22.20;11.52;;;-3.10;99.90;;;;;;4727113;30;20154;-46
2023/11/29 04:49:03;;;;;;;20.20;10.10;;;-3.20;99.90;;;;;;4712213;30;20518;-43
2023/11/29 04:51:30;;;;;;;20.45;10.68;;;-3.20;99.90;;;;;;4727567;30;20083;-47
2023/11/29 04:53:59;;;;;;;23.05;11.77;;;-3.20;99.90;;;;;;4727714;30;20115;-47
2023/11/29 04:56:26;;;;;;;20.65;11.38;;;-3.30;99.90;;;;;;4728216;30;20090;-45
2023/11/29 04:58:54;;;;;;;21.52;11.23;;;-3.20;99.90;;;;;;4726176;30;20090;-48
2023/11/29 05:01:21;;;;;;;23.95;11.52;;;-3.30;99.90;;;;;;4728517;30;20388;-48
2023/11/29 05:03:50;;;;;;;20.75;11.68;;;-3.20;99.90;;;;;;4727736;30;20056;-47
2023/11/29 05:06:17;;;;;;;21.05;11.43;;;-3.20;99.90;;;;;;4712989;30;20044;-42
2023/11/29 05:08:44;;;;;;;18.48;10.88;;;-3.20;99.90;;;;;;4728938;30;20048;-45
2023/11/29 05:11:12;;;;;;;24.98;12.45;;;-3.20;99.90;;;;;;4727886;30;20136;-42
2023/11/29 05:13:39;;;;;;;22.00;10.80;;;-3.20;99.90;;;;;;4712955;30;20063;-53
2023/11/29 05:16:06;;;;;;;20.25;11.38;;;-3.10;99.90;;;;;;4709027;30;20126;-43
2023/11/29 05:18:34;;;;;;;21.65;11.38;;;-3.20;99.90;;;;;;4728015;30;20435;-44
2023/11/29 05:21:01;;;;;;;22.10;12.63;;;-3.20;99.90;;;;;;4728033;30;20140;-50
2023/11/29 05:23:29;;;;;;;23.10;11.85;;;-3.20;99.90;;;;;;4712320;30;20060;-47
2023/11/29 05:25:56;;;;;;;22.50;11.75;;;-3.20;99.90;;;;;;4729467;30;20134;-44
2023/11/29 05:28:25;;;;;;;23.35;12.38;;;-3.20;99.90;;;;;;4725769;30;20048;-45
2023/11/29 05:30:55;;;;;;;20.98;11.98;;;-3.10;99.90;;;;;;4727056;30;20079;-43
2023/11/29 05:33:23;;;;;;;23.08;13.25;;;-3.20;99.90;;;;;;4727178;30;20071;-44
2023/11/29 05:35:53;;;;;;;26.48;13.77;;;-3.00;99.90;;;;;;4727173;30;20052;-47
2023/11/29 05:38:20;;;;;;;26.05;12.85;;;-2.90;99.90;;;;;;4727745;30;20131;-46
2023/11/29 05:40:47;;;;;;;26.77;13.27;;;-2.80;99.90;;;;;;4725903;30;20041;-43
2023/11/29 05:43:14;;;;;;;26.50;12.98;;;-2.70;99.90;;;;;;4727392;30;20081;-44
2023/11/29 05:45:41;;;;;;;27.90;14.77;;;-2.60;99.90;;;;;;4727281;30;20104;-46
2023/11/29 05:48:08;;;;;;;25.25;14.32;;;-2.50;99.90;;;;;;4721298;30;20418;-43
2023/11/29 05:50:36;;;;;;;28.42;15.23;;;-2.50;99.90;;;;;;4723716;30;20053;-41
2023/11/29 05:53:03;;;;;;;23.25;13.00;;;-2.40;99.90;;;;;;4728359;30;20048;-41
2023/11/29 05:55:31;;;;;;;22.13;12.93;;;-2.40;99.90;;;;;;4711285;30;20064;-43
2023/11/29 05:57:58;;;;;;;22.88;13.25;;;-2.40;99.90;;;;;;4728704;30;20154;-45
2023/11/29 06:00:25;;;;;;;28.20;16.70;;;-2.40;99.90;;;;;;4727850;30;20093;-48
2023/11/29 06:02:59;;;;;;;23.05;13.30;;;-2.50;99.90;;;;;;4728477;30;20111;-50
2023/11/29 06:05:31;;;;;;;21.20;12.10;;;-2.50;99.90;;;;;;4728572;30;20333;-44
2023/11/29 06:07:59;;;;;;;24.60;11.90;;;-2.60;99.90;;;;;;4729189;30;20067;-47
2023/11/29 06:10:26;;;;;;;23.50;12.75;;;-2.60;99.90;;;;;;4728630;30;20057;-45
2023/11/29 06:12:53;;;;;;;22.42;12.75;;;-2.70;99.90;;;;;;4728839;30;20060;-46
2023/11/29 06:15:21;;;;;;;24.48;13.10;;;-2.70;99.90;;;;;;4728979;30;20420;-49
2023/11/29 06:17:48;;;;;;;25.38;13.30;;;-2.70;99.90;;;;;;4731006;30;20123;-44
2023/11/29 06:20:18;;;;;;;21.63;12.40;;;-2.70;99.90;;;;;;4732123;30;20063;-44
2023/11/29 06:22:46;;;;;;;22.92;12.80;;;-2.80;99.90;;;;;;4732085;30;20098;-41
2023/11/29 06:25:14;;;;;;;24.73;12.88;;;-2.80;99.90;;;;;;4733652;30;20059;-47
2023/11/29 06:27:44;;;;;;;22.52;12.82;;;-2.80;99.90;;;;;;4731786;30;20114;-42
2023/11/29 06:30:12;;;;;;;27.83;13.25;;;-2.80;99.90;;;;;;4716653;30;20387;-41
2023/11/29 06:32:41;;;;;;;26.90;13.57;;;-2.70;99.90;;;;;;4730990;30;20690;-45
2023/11/29 06:35:12;;;;;;;27.23;14.57;;;-2.60;99.90;;;;;;4715949;30;20048;-43
2023/11/29 06:37:40;;;;;;;25.42;13.10;;;-2.60;99.90;;;;;;4714721;30;20092;-45
2023/11/29 06:40:11;;;;;;;25.48;14.15;;;-2.50;99.90;;;;;;4725796;30;20060;-45
2023/11/29 06:42:42;;;;;;;22.10;12.20;;;-2.50;99.90;;;;;;4729500;30;20091;-45
2023/11/29 06:45:10;;;;;;;26.02;13.27;;;-2.50;99.90;;;;;;4723270;30;20128;-50
2023/11/29 06:47:38;;;;;;;26.25;13.57;;;-2.50;99.90;;;;;;4730290;30;20079;-45
2023/11/29 06:50:05;;;;;;;23.10;12.43;;;-2.40;99.90;;;;;;4731144;30;20118;-46
2023/11/29 06:52:33;;;;;;;24.15;12.55;;;-2.50;99.90;;;;;;4730725;30;20060;-46
2023/11/29 06:55:00;;;;;;;26.45;13.38;;;-2.50;99.90;;;;;;4730911;30;20604;-49
2023/11/29 06:57:27;;;;;;;24.73;13.90;;;-2.50;99.90;;;;;;4730347;30;20074;-42
2023/11/29 06:59:54;;;;;;;27.45;14.82;;;-2.40;99.90;;;;;;4731065;30;20139;-51
2023/11/29 07:02:22;;;;;;;27.33;13.98;;;-2.40;99.90;;;;;;4730755;30;20576;-43
2023/11/29 07:04:49;;;;;;;22.42;13.25;;;-2.40;99.90;;;;;;4728734;30;20149;-48
2023/11/29 07:07:16;;;;;;;25.05;13.20;;;-2.30;99.90;;;;;;4714955;30;20055;-43
2023/11/29 07:09:45;;;;;;;27.75;14.18;;;-2.30;99.90;;;;;;4714631;30;20461;-44
2023/11/29 07:12:13;;;;;;;29.23;15.23;;;-2.30;99.90;;;;;;4731460;30;20119;-43
2023/11/29 07:14:41;;;;;;;28.77;15.02;;;-2.30;99.90;;;;;;4726949;30;20072;-44
2023/11/29 07:17:09;;;;;;;26.83;14.63;;;-2.20;99.90;;;;;;4713512;30;20060;-47
2023/11/29 07:19:40;;;;;;;25.83;13.82;;;-2.20;99.90;;;;;;4730321;30;20060;-47
2023/11/29 07:22:08;;;;;;;26.20;14.15;;;-2.10;99.90;;;;;;4714110;30;20468;-50
2023/11/29 07:24:35;;;;;;;26.83;13.90;;;-2.00;99.90;;;;;;4729597;30;20052;-53
2023/11/29 07:27:02;;;;;;;24.92;13.45;;;-1.80;99.90;;;;;;4730883;30;20104;-47
2023/11/29 07:29:30;;;;;;;25.55;13.85;;;-1.70;99.90;;;;;;4729523;30;20150;-44
2023/11/29 07:31:58;;;;;;;26.92;14.88;;;-1.50;99.90;;;;;;4729751;30;20507;-50
2023/11/29 07:34:26;;;;;;;29.95;16.85;;;-1.40;99.90;;;;;;4712363;30;20049;-48
2023/11/29 07:36:53;;;;;;;24.17;12.82;;;-1.30;99.90;;;;;;4726173;30;20682;-51
2023/11/29 07:39:21;;;;;;;22.75;13.38;;;-1.10;99.90;;;;;;4700404;30;20598;-48
2023/11/29 07:41:49;;;;;;;23.92;14.15;;;-1.00;99.90;;;;;;4712558;30;20056;-44
2023/11/29 07:44:21;;;;;;;23.10;13.25;;;-0.90;99.90;;;;;;4730176;30;20460;-45
2023/11/29 07:46:50;;;;;;;19.63;11.73;;;-0.90;99.90;;;;;;4730227;30;20056;-47
2023/11/29 07:49:17;;;;;;;22.10;12.98;;;-0.80;99.90;;;;;;4730066;30;20091;-46
2023/11/29 07:51:45;;;;;;;23.90;12.75;;;-0.80;99.90;;;;;;4712778;30;20044;-41
2023/11/29 07:54:13;;;;;;;22.33;13.07;;;-0.80;99.90;;;;;;4728649;30;20581;-48
2023/11/29 07:56:42;;;;;;;21.40;13.02;;;-0.80;99.90;;;;;;4728602;30;20057;-52
2023/11/29 07:59:10;;;;;;;25.40;13.25;;;-0.80;99.90;;;;;;4729364;30;20056;-50
2023/11/29 08:01:38;;;;;;;23.00;12.70;;;-0.80;99.90;;;;;;4728897;30;20459;-44
2023/11/29 08:04:07;;;;;;;21.30;12.35;;;-0.80;99.90;;;;;;4729189;30;20284;-44
2023/11/29 08:06:34;;;;;;;20.95;12.18;;;-0.70;99.90;;;;;;4729690;30;20056;-51
2023/11/29 08:09:01;;;;;;;21.98;12.55;;;-0.80;99.90;;;;;;4714515;30;20469;-47
2023/11/29 08:11:35;;;;;;;21.40;12.48;;;-0.70;99.90;;;;;;4728918;30;20061;-44
2023/11/29 08:14:02;;;;;;;22.17;12.82;;;-0.60;99.90;;;;;;4726989;30;20059;-45
2023/11/29 08:16:29;;;;;;;21.10;12.68;;;-0.60;99.90;;;;;;4729870;30;20553;-47
2023/11/29 08:18:57;;;;;;;21.70;11.93;;;-0.60;99.90;;;;;;4713269;30;20163;-49
2023/11/29 08:21:25;;;;;;;24.90;13.52;;;-0.40;99.90;;;;;;4713707;30;20052;-44
2023/11/29 08:23:52;;;;;;;22.10;13.02;;;-0.30;99.90;;;;;;4729682;30;20049;-52
2023/11/29 08:26:20;;;;;;;25.67;13.38;;;-0.30;99.90;;;;;;4727968;30;20064;-46
2023/11/29 08:28:49;;;;;;;25.50;13.05;;;-0.20;99.90;;;;;;4698668;30;20488;-44
2023/11/29 08:31:16;;;;;;;23.40;13.05;;;-0.20;99.90;;;;;;4711871;30;20180;-45
2023/11/29 08:33:43;;;;;;;20.98;12.18;;;-0.10;99.90;;;;;;4727970;30;20060;-51
2023/11/29 08:36:15;;;;;;;26.33;13.00;;;-0.10;99.90;;;;;;4728375;30;20061;-48
2023/11/29 08:38:42;;;;;;;19.52;12.82;;;-0.20;99.90;;;;;;4728134;30;20712;-46
2023/11/29 08:41:09;;;;;;;23.60;12.40;;;0.00;99.90;;;;;;4712417;30;20060;-48
2023/11/29 08:43:36;;;;;;;20.27;11.73;;;0.00;99.90;;;;;;4713691;30;20067;-48
2023/11/29 08:46:03;;;;;;;21.77;12.18;;;0.10;99.90;;;;;;4727040;30;20522;-53
2023/11/29 08:48:31;;;;;;;21.15;12.05;;;0.10;99.90;;;;;;4711925;30;20526;-46
2023/11/29 08:50:58;;;;;;;20.77;11.55;;;0.20;99.90;;;;;;4727704;30;20080;-46
2023/11/29 08:53:26;;;;;;;26.60;12.75;;;0.10;99.90;;;;;;4727841;30;20139;-45
2023/11/29 08:56:14;;;;;;;24.85;12.30;;;0.20;99.90;;;;;;4728488;30;20515;-50
2023/11/29 08:58:41;;;;;;;21.70;12.32;;;0.30;99.90;;;;;;4712505;30;20053;-50
2023/11/29 09:01:11;;;;;;;22.27;12.75;;;0.30;99.90;;;;;;4728319;30;20060;-47
2023/11/29 09:03:38;;;;;;;22.95;12.55;;;0.40;99.90;;;;;;4729117;30;20137;-43
2023/11/29 09:06:06;;;;;;;25.65;12.43;;;0.50;99.90;;;;;;4712372;30;20124;-47
2023/11/29 09:08:33;;;;;;;22.10;11.98;;;0.50;99.90;;;;;;4728749;30;20525;-50
2023/11/29 09:11:00;;;;;;;25.65;14.30;;;0.50;99.90;;;;;;4726291;30;20056;-50
2023/11/29 09:13:28;;;;;;;22.08;12.18;;;0.50;99.90;;;;;;4727197;30;20072;-46
2023/11/29 09:15:58;;;;;;;22.92;11.73;;;0.50;99.90;;;;;;4726442;30;20055;-46
2023/11/29 09:18:26;;;;;;;21.50;11.32;;;0.50;99.90;;;;;;4728735;30;20519;-46
2023/11/29 09:20:54;;;;;;;22.50;12.05;;;0.60;99.90;;;;;;4721584;30;20071;-51
2023/11/29 09:23:21;;;;;;;24.70;12.30;;;0.60;99.90;;;;;;4727981;30;20056;-48
2023/11/29 09:25:48;;;;;;;21.77;12.38;;;0.70;99.90;;;;;;4726783;30;20920;-48
2023/11/29 09:28:16;;;;;;;20.52;11.63;;;0.70;99.90;;;;;;4727415;30;20061;-46
2023/11/29 09:30:45;;;;;;;20.50;11.23;;;0.70;99.90;;;;;;4720966;30;20053;-46
2023/11/29 09:33:12;;;;;;;19.88;11.50;;;0.80;99.90;;;;;;4702196;30;20541;-46
2023/11/29 09:35:42;;;;;;;20.60;12.25;;;0.90;99.90;;;;;;4727013;30;20057;-49
2023/11/29 09:38:10;;;;;;;20.55;11.75;;;0.90;99.90;;;;;;4728369;30;20558;-45
2023/11/29 09:40:38;;;;;;;19.80;11.05;;;0.90;99.90;;;;;;4726380;30;20536;-45
2023/11/29 09:43:07;;;;;;;27.08;14.93;;;1.10;99.90;;;;;;4726981;30;20072;-49
2023/11/29 09:45:35;;;;;;;22.73;13.07;;;1.20;99.90;;;;;;4728061;30;20203;-55
2023/11/29 09:48:03;;;;;;;23.02;12.77;;;1.20;99.90;;;;;;4729886;30;20048;-49
2023/11/29 09:50:32;;;;;;;20.55;11.82;;;1.30;99.90;;;;;;4710819;30;20060;-45
2023/11/29 09:53:00;;;;;;;21.52;12.25;;;1.50;99.90;;;;;;4711716;30;20052;-45
2023/11/29 09:55:27;;;;;;;21.35;11.88;;;1.50;99.90;;;;;;4726209;30;20071;-51
2023/11/29 09:57:56;;;;;;;19.77;11.95;;;1.50;99.90;;;;;;4723275;30;20106;-44
2023/11/29 10:00:24;;;;;;;20.63;11.50;;;1.60;99.90;;;;;;4727085;30;20408;-42
2023/11/29 10:02:52;;;;;;;19.02;10.75;;;1.60;99.90;;;;;;4727440;30;20062;-46
2023/11/29 10:05:19;;;;;;;18.17;11.20;;;1.70;99.90;;;;;;4728983;30;20045;-43
2023/11/29 10:07:47;;;;;;;19.98;12.18;;;1.80;99.90;;;;;;4727401;30;20072;-46
2023/11/29 10:10:15;;;;;;;18.52;11.25;;;1.60;99.90;;;;;;4726174;30;20120;-53
2023/11/29 10:12:43;;;;;;;18.63;11.30;;;1.60;99.90;;;;;;4727394;30;20215;-49
2023/11/29 10:15:12;;;;;;;19.00;11.00;;;1.70;99.90;;;;;;4723767;30;20515;-47
2023/11/29 10:17:44;;;;;;;20.15;11.48;;;1.80;99.90;;;;;;4727803;30;20070;-46
2023/11/29 10:20:13;;;;;;;17.58;10.48;;;1.70;99.90;;;;;;4727659;30;20087;-54
2023/11/29 10:22:41;;;;;;;17.27;10.98;;;1.80;99.90;;;;;;4711797;30;20057;-47
2023/11/29 10:25:20;;;;;;;17.02;11.05;;;1.90;99.90;;;;;;4726407;30;20752;-49
2023/11/29 10:27:49;;;;;;;17.05;9.65;;;2.00;99.90;;;;;;4727411;30;20099;-50
2023/11/29 10:30:17;;;;;;;16.83;10.35;;;2.00;99.90;;;;;;4726568;30;20056;-44
2023/11/29 10:32:46;;;;;;;18.90;11.82;;;2.00;99.90;;;;;;4697661;30;20533;-52
2023/11/29 10:35:18;;;;;;;18.08;10.52;;;2.20;99.90;;;;;;4726199;30;20048;-47
2023/11/29 10:38:05;;;;;;;15.52;9.63;;;2.40;99.90;;;;;;4710418;30;20084;-53
2023/11/29 10:40:32;;;;;;;17.38;10.32;;;2.40;99.90;;;;;;4682902;30;20079;-48
2023/11/29 10:43:04;;;;;;;16.35;10.45;;;2.70;99.90;;;;;;4711463;30;20065;-51
2023/11/29 10:45:36;;;;;;;17.70;10.63;;;2.80;99.90;;;;;;4708562;30;20056;-46
2023/11/29 10:48:11;;;;;;;14.88;9.82;;;2.80;99.90;;;;;;4709290;30;20055;-53
2023/11/29 10:50:40;;;;;;;17.27;10.32;;;2.80;99.90;;;;;;4726808;30;20110;-48
2023/11/29 10:53:07;;;;;;;16.13;9.85;;;2.80;99.90;;;;;;4726934;30;20060;-48
2023/11/29 10:55:38;;;;;;;15.43;9.85;;;2.60;99.90;;;;;;4727814;30;20052;-48
2023/11/29 10:58:30;;;;;;;15.77;9.43;;;2.40;99.90;;;;;;4725114;30;20052;-47
2023/11/29 11:00:58;;;;;;;14.90;8.63;;;2.20;99.90;;;;;;4731328;30;20063;-51
2023/11/29 11:03:42;;;;;;;14.80;8.93;;;2.00;99.90;;;;;;4730179;30;20051;-52
2023/11/29 11:06:22;;;;;;;15.18;9.20;;;2.10;99.90;;;;;;4728422;30;20052;-48
2023/11/29 11:08:50;;;;;;;16.15;9.88;;;2.10;99.90;;;;;;4731594;30;20840;-50
2023/11/29 11:11:43;;;;;;;15.00;9.23;;;2.10;99.90;;;;;;4727604;30;20436;-51
2023/11/29 11:14:25;;;;;;;14.73;9.23;;;2.20;99.90;;;;;;4723150;30;20080;-46
2023/11/29 11:17:18;;;;;;;14.43;9.60;;;2.30;99.90;;;;;;4726961;30;20044;-48
2023/11/29 11:19:47;;;;;;;15.70;9.45;;;2.50;99.90;;;;;;4729863;30;20840;-52
2023/11/29 11:22:31;;;;;;;15.18;9.23;;;2.90;99.90;;;;;;4729577;30;20041;-49
2023/11/29 11:25:05;;;;;;;15.75;9.60;;;3.20;99.90;;;;;;4728710;30;20071;-49
2023/11/29 11:27:38;;;;;;;13.20;8.60;;;3.40;99.90;;;;;;4730847;30;20512;-48
2023/11/29 11:30:14;;;;;;;15.30;9.10;;;4.10;99.90;;;;;;4727095;30;20114;-45
2023/11/29 11:32:49;;;;;;;14.60;9.30;;;4.20;99.90;;;;;;4730411;30;20111;-47
2023/11/29 11:35:16;;;;;;;14.68;9.65;;;3.80;99.90;;;;;;4730794;30;20114;-50
2023/11/29 11:37:46;;;;;;;11.85;8.30;;;3.60;99.90;;;;;;4729927;30;20066;-46
2023/11/29 11:40:14;;;;;;;12.63;8.77;;;3.20;99.90;;;;;;4730127;30;20067;-53
2023/11/29 11:42:42;;;;;;;12.88;8.43;;;2.90;99.90;;;;;;4729088;30;20139;-48
2023/11/29 11:45:13;;;;;;;13.15;8.88;;;2.70;99.90;;;;;;4730977;30;20041;-45
2023/11/29 11:47:43;;;;;;;13.73;8.13;;;2.60;99.90;;;;;;4729896;30;20046;-47
2023/11/29 11:50:16;;;;;;;13.60;8.90;;;2.60;99.90;;;;;;4731009;30;20060;-50
2023/11/29 11:52:43;;;;;;;12.38;7.97;;;2.50;99.90;;;;;;4711813;30;20412;-53
2023/11/29 11:55:12;;;;;;;13.32;7.50;;;2.50;99.90;;;;;;4730655;30;20065;-55
2023/11/29 11:57:40;;;;;;;12.52;8.02;;;2.40;99.90;;;;;;4710033;30;20056;-46
2023/11/29 12:00:08;;;;;;;11.65;7.43;;;2.20;99.90;;;;;;4714889;30;20442;-48
2023/11/29 12:02:37;;;;;;;11.80;7.90;;;2.30;99.90;;;;;;4714374;30;20147;-47
2023/11/29 12:05:07;;;;;;;13.95;8.55;;;2.30;99.90;;;;;;4730209;30;20422;-54
2023/11/29 12:07:40;;;;;;;12.52;8.10;;;2.40;99.90;;;;;;4730750;30;20064;-53
2023/11/29 12:10:09;;;;;;;12.23;7.53;;;2.50;99.90;;;;;;4728280;30;20051;-53
2023/11/29 12:12:37;;;;;;;13.60;7.85;;;2.50;99.90;;;;;;4728766;30;20060;-50
2023/11/29 12:15:06;;;;;;;11.68;7.63;;;2.50;99.90;;;;;;4709367;30;20057;-54
2023/11/29 12:17:35;;;;;;;12.10;7.47;;;2.50;99.90;;;;;;4730188;30;20447;-51
2023/11/29 12:20:06;;;;;;;11.40;7.23;;;2.50;99.90;;;;;;4729150;30;20088;-50
2023/11/29 12:22:34;;;;;;;13.52;7.55;;;2.40;99.90;;;;;;4729615;30;20510;-44
2023/11/29 12:25:01;;;;;;;11.43;7.47;;;2.20;99.90;;;;;;4698540;30;20376;-44
2023/11/29 12:27:28;;;;;;;12.45;7.18;;;2.30;99.90;;;;;;4731097;30;20099;-47
2023/11/29 12:29:59;;;;;;;11.52;7.43;;;2.30;99.90;;;;;;4721774;30;20049;-49
2023/11/29 12:32:28;;;;;;;12.43;7.40;;;2.40;99.90;;;;;;4729689;30;20044;-51
2023/11/29 12:34:57;;;;;;;12.57;7.82;;;2.50;99.90;;;;;;4728060;30;20064;-51
2023/11/29 12:37:26;;;;;;;13.45;8.35;;;2.40;99.90;;;;;;4729002;30;20057;-49
2023/11/29 12:39:57;;;;;;;11.95;7.90;;;2.40;99.90;;;;;;4726051;30;20057;-49
2023/11/29 12:42:25;;;;;;;12.48;7.95;;;2.70;99.90;;;;;;4729943;30;20112;-50